createdAt,value
2022-11-20T00:01:28.227Z,26.13
2022-11-20T00:03:57.005Z,27.92
2022-11-20T00:06:25.529Z,25.88
2022-11-20T00:08:55.227Z,26.05
2022-11-20T00:11:24.922Z,25.02
2022-11-20T00:13:55.614Z,26.58
2022-11-20T00:16:25.185Z,25.65
2022-11-20T00:18:53.153Z,24.77
2022-11-20T00:21:26.623Z,26.70
2022-11-20T00:23:56.101Z,25.15
2022-11-20T00:26:26.096Z,25.65
2022-11-20T00:28:55.875Z,25.98
2022-11-20T00:31:23.653Z,26.10
2022-11-20T00:33:50.967Z,23.02
2022-11-20T00:36:21.003Z,25.30
2022-11-20T00:38:52.038Z,25.98
2022-11-20T00:41:19.614Z,26.90
2022-11-20T00:43:46.918Z,23.30
2022-11-20T00:46:19.805Z,22.58
2022-11-20T00:48:47.063Z,24.05
2022-11-20T00:51:17.616Z,23.27
2022-11-20T00:53:45.391Z,23.02
2022-11-20T00:56:15.281Z,24.95
2022-11-20T00:58:45.016Z,22.90
2022-11-20T01:01:21.623Z,21.85
2022-11-20T01:03:51.206Z,24.40
2022-11-20T01:06:25.517Z,23.52
2022-11-20T01:08:55.669Z,22.33
2022-11-20T01:11:28.598Z,23.85
2022-11-20T01:13:57.411Z,23.38
2022-11-20T01:16:28.386Z,22.02
2022-11-20T01:18:58.931Z,21.05
2022-11-20T01:21:35.285Z,22.20
2022-11-20T01:24:03.711Z,18.03
2022-11-20T01:26:33.753Z,23.05
2022-11-20T01:29:01.801Z,23.27
2022-11-20T01:31:32.026Z,23.08
2022-11-20T01:34:01.522Z,21.63
2022-11-20T01:36:31.146Z,22.10
2022-11-20T01:39:00.915Z,22.20
2022-11-20T01:41:48.965Z,23.63
2022-11-20T01:47:01.779Z,21.45
2022-11-20T01:49:48.152Z,22.67
2022-11-20T01:52:21.078Z,20.53
2022-11-20T01:54:57.126Z,21.85
2022-11-20T01:57:27.156Z,21.98
2022-11-20T02:00:00.891Z,22.52
2022-11-20T02:02:28.909Z,22.42
2022-11-20T02:04:59.860Z,23.90
2022-11-20T02:07:27.688Z,21.50
2022-11-20T02:09:58.675Z,22.10
2022-11-20T02:12:45.094Z,23.10
2022-11-20T02:15:12.284Z,23.65
2022-11-20T02:17:39.947Z,24.02
2022-11-20T02:20:08.136Z,23.77
2022-11-20T02:22:46.747Z,23.58
2022-11-20T02:25:14.911Z,25.00
2022-11-20T02:27:42.477Z,25.02
2022-11-20T02:30:12.012Z,24.45
2022-11-20T02:32:39.959Z,25.63
2022-11-20T02:35:30.838Z,25.13
2022-11-20T02:38:01.967Z,24.42
2022-11-20T02:40:29.796Z,26.05
2022-11-20T02:42:57.855Z,25.35
2022-11-20T02:45:25.880Z,27.10
2022-11-20T02:47:53.552Z,25.95
2022-11-20T02:50:21.289Z,25.83
2022-11-20T02:52:48.942Z,24.48
2022-11-20T02:55:16.171Z,26.85
2022-11-20T02:57:43.653Z,24.40
2022-11-20T03:00:12.699Z,26.13
2022-11-20T03:02:40.178Z,27.58
2022-11-20T03:05:07.693Z,29.40
2022-11-20T03:07:35.195Z,25.85
2022-11-20T03:10:02.458Z,24.92
2022-11-20T03:12:29.886Z,25.65
2022-11-20T03:14:57.097Z,24.73
2022-11-20T03:17:24.621Z,27.45
2022-11-20T03:19:51.834Z,27.08
2022-11-20T03:22:19.302Z,26.63
2022-11-20T03:24:47.137Z,28.50
2022-11-20T03:27:14.669Z,25.60
2022-11-20T03:29:41.827Z,27.40
2022-11-20T03:32:09.626Z,26.63
2022-11-20T03:34:36.821Z,27.58
2022-11-20T03:37:04.295Z,28.48
2022-11-20T03:39:31.408Z,28.67
2022-11-20T03:41:58.792Z,28.98
2022-11-20T03:44:26.121Z,25.85
2022-11-20T03:46:53.617Z,25.55
2022-11-20T03:49:21.080Z,28.35
2022-11-20T03:51:48.750Z,27.27
2022-11-20T03:54:16.283Z,26.70
2022-11-20T03:56:43.741Z,27.77
2022-11-20T03:59:11.888Z,27.50
2022-11-20T04:01:39.405Z,27.02
2022-11-20T04:04:06.704Z,25.60
2022-11-20T04:06:38.867Z,25.88
2022-11-20T04:09:07.375Z,26.45
2022-11-20T04:11:37.025Z,28.38
2022-11-20T04:14:06.918Z,27.77
2022-11-20T04:16:36.768Z,29.10
2022-11-20T04:19:07.245Z,29.58
2022-11-20T04:21:34.886Z,25.23
2022-11-20T04:24:02.435Z,24.33
2022-11-20T04:26:30.786Z,28.08
2022-11-20T04:28:58.871Z,28.30
2022-11-20T04:31:29.354Z,27.33
2022-11-20T04:33:59.978Z,28.38
2022-11-20T04:36:30.048Z,29.55
2022-11-20T04:39:02.322Z,25.45
2022-11-20T04:41:32.050Z,26.13
2022-11-20T04:44:04.075Z,28.80
2022-11-20T04:46:34.396Z,26.50
2022-11-20T04:49:01.998Z,28.95
2022-11-20T04:51:30.173Z,28.52
2022-11-20T04:53:57.391Z,28.65
2022-11-20T04:56:25.216Z,27.83
2022-11-20T04:58:52.351Z,27.42
2022-11-20T05:01:24.948Z,26.45
2022-11-20T05:03:52.724Z,28.55
2022-11-20T05:06:26.069Z,27.20
2022-11-20T05:08:53.279Z,27.38
2022-11-20T05:11:22.826Z,28.65
2022-11-20T05:13:52.352Z,25.42
2022-11-20T05:16:23.015Z,26.27
2022-11-20T05:18:51.705Z,26.42
2022-11-20T05:21:19.388Z,27.25
2022-11-20T05:23:46.984Z,29.67
2022-11-20T05:26:22.307Z,27.08
2022-11-20T05:28:50.712Z,26.45
2022-11-20T05:31:27.795Z,29.48
2022-11-20T05:33:57.213Z,25.63
2022-11-20T05:36:25.631Z,26.42
2022-11-20T05:38:56.687Z,27.27
2022-11-20T05:41:27.423Z,26.02
2022-11-20T05:43:54.576Z,24.75
2022-11-20T05:46:27.887Z,25.90
2022-11-20T05:48:57.350Z,26.42
2022-11-20T05:51:26.252Z,28.30
2022-11-20T05:53:53.432Z,26.15
2022-11-20T05:56:22.392Z,24.42
2022-11-20T05:58:50.460Z,24.30
2022-11-20T06:01:26.020Z,27.60
2022-11-20T06:03:54.670Z,26.13
2022-11-20T06:06:22.672Z,23.95
2022-11-20T06:08:50.548Z,25.35
2022-11-20T06:11:18.857Z,25.75
2022-11-20T06:13:46.567Z,27.27
2022-11-20T06:16:16.939Z,23.60
2022-11-20T06:18:44.178Z,23.60
2022-11-20T06:21:17.487Z,26.27
2022-11-20T06:23:46.248Z,24.50
2022-11-20T06:26:22.755Z,26.33
2022-11-20T06:28:50.723Z,25.73
2022-11-20T06:31:20.613Z,25.25
2022-11-20T06:33:48.540Z,25.20
2022-11-20T06:36:18.199Z,24.48
2022-11-20T06:38:45.823Z,23.95
2022-11-20T06:41:16.072Z,25.10
2022-11-20T06:43:43.537Z,25.33
2022-11-20T06:46:13.488Z,26.05
2022-11-20T06:48:41.361Z,24.08
2022-11-20T06:51:09.517Z,23.98
2022-11-20T06:53:37.404Z,26.25
2022-11-20T06:56:05.301Z,25.35
2022-11-20T06:58:34.660Z,25.17
2022-11-20T07:01:06.659Z,26.15
2022-11-20T07:03:34.149Z,22.83
2022-11-20T07:06:02.301Z,23.80
2022-11-20T07:08:30.565Z,24.63
2022-11-20T07:11:03.188Z,25.63
2022-11-20T07:13:30.947Z,26.77
2022-11-20T07:16:06.570Z,22.15
2022-11-20T07:18:34.280Z,23.85
2022-11-20T07:21:06.829Z,24.55
2022-11-20T07:23:34.058Z,25.83
2022-11-20T07:26:10.261Z,22.95
2022-11-20T07:28:37.777Z,23.23
2022-11-20T07:31:07.733Z,24.52
2022-11-20T07:33:35.152Z,28.05
2022-11-20T07:36:02.930Z,28.08
2022-11-20T07:38:30.239Z,28.02
2022-11-20T07:40:58.709Z,27.90
2022-11-20T07:43:26.394Z,26.17
2022-11-20T07:45:57.040Z,25.08
2022-11-20T07:48:24.910Z,27.30
2022-11-20T07:50:58.102Z,25.35
2022-11-20T07:53:25.794Z,24.45
2022-11-20T07:55:53.589Z,22.75
2022-11-20T07:58:21.796Z,24.98
2022-11-20T08:00:49.331Z,22.90
2022-11-20T08:03:21.634Z,21.20
2022-11-20T08:05:51.809Z,23.27
2022-11-20T08:08:19.003Z,25.90
2022-11-20T08:10:46.471Z,22.42
2022-11-20T08:13:32.368Z,23.27
2022-11-20T08:15:59.817Z,21.98
2022-11-20T08:18:32.218Z,22.30
2022-11-20T08:21:04.919Z,23.17
2022-11-20T08:23:32.316Z,22.27
2022-11-20T08:25:59.849Z,25.42
2022-11-20T08:28:27.019Z,23.20
2022-11-20T08:31:03.433Z,24.13
2022-11-20T08:33:31.259Z,20.85
2022-11-20T08:36:02.995Z,21.27
2022-11-20T08:38:31.211Z,22.45
2022-11-20T08:41:22.954Z,24.08
2022-11-20T08:43:51.439Z,22.77
2022-11-20T08:46:18.972Z,21.50
2022-11-20T08:48:46.140Z,21.48
2022-11-20T08:51:14.153Z,22.65
2022-11-20T08:53:42.248Z,23.13
2022-11-20T08:56:10.786Z,24.20
2022-11-20T08:59:09.809Z,26.33
2022-11-20T09:01:28.035Z,23.80
2022-11-20T09:04:00.920Z,23.75
2022-11-20T09:06:28.522Z,24.58
2022-11-20T09:08:55.914Z,24.55
2022-11-20T09:11:24.093Z,24.17
2022-11-20T09:13:51.369Z,25.27
2022-11-20T09:16:18.810Z,24.73
2022-11-20T09:18:45.978Z,26.95
2022-11-20T09:21:15.182Z,23.58
2022-11-20T09:23:42.577Z,24.42
2022-11-20T09:26:14.757Z,24.65
2022-11-20T09:28:42.370Z,23.20
2022-11-20T09:31:19.322Z,23.45
2022-11-20T09:33:46.520Z,24.50
2022-11-20T09:36:14.006Z,26.08
2022-11-20T09:38:41.174Z,25.02
2022-11-20T09:41:18.043Z,26.65
2022-11-20T09:43:57.100Z,24.67
2022-11-20T09:46:53.916Z,24.30
2022-11-20T09:49:33.927Z,25.45
2022-11-20T09:52:15.503Z,24.45
2022-11-20T09:54:42.882Z,24.73
2022-11-20T09:57:18.241Z,24.73
2022-11-20T09:59:49.616Z,24.75
2022-11-20T10:02:22.343Z,24.38
2022-11-20T10:04:56.467Z,25.90
2022-11-20T10:07:32.689Z,23.67
2022-11-20T10:10:01.144Z,18.77
2022-11-20T10:12:47.519Z,23.45
2022-11-20T10:15:26.650Z,26.10
2022-11-20T10:18:10.204Z,25.42
2022-11-20T10:20:55.912Z,26.08
2022-11-20T10:23:29.153Z,24.20
2022-11-20T10:26:16.483Z,25.63
2022-11-20T10:31:39.070Z,23.88
2022-11-20T10:34:26.925Z,27.27
2022-11-20T10:39:54.575Z,25.15
2022-11-20T10:42:52.185Z,28.03
2022-11-20T10:45:25.668Z,26.13
2022-11-20T10:48:08.298Z,25.70
2022-11-20T10:50:41.393Z,25.17
2022-11-20T10:53:08.551Z,26.67
2022-11-20T10:55:51.620Z,25.35
2022-11-20T10:58:36.424Z,25.90
2022-11-20T11:01:14.852Z,24.50
2022-11-20T11:03:44.589Z,24.90
2022-11-20T11:06:19.542Z,24.17
2022-11-20T11:08:50.449Z,26.85
2022-11-20T11:11:39.279Z,27.08
2022-11-20T11:14:08.146Z,22.95
2022-11-20T11:16:35.804Z,25.42
2022-11-20T11:19:14.593Z,29.30
2022-11-20T11:21:55.783Z,25.98
2022-11-20T11:24:41.759Z,23.10
2022-11-20T11:27:18.973Z,24.23
2022-11-20T11:29:47.474Z,25.65
2022-11-20T11:32:21.704Z,25.77
2022-11-20T11:35:07.418Z,23.52
2022-11-20T11:37:38.175Z,22.83
2022-11-20T11:43:00.786Z,23.92
2022-11-20T11:45:28.600Z,23.73
2022-11-20T11:47:59.382Z,25.30
2022-11-20T11:50:28.150Z,24.10
2022-11-20T11:53:15.389Z,23.00
2022-11-20T11:55:49.310Z,23.83
2022-11-20T11:58:22.905Z,21.73
2022-11-20T12:01:02.967Z,23.35
2022-11-20T12:03:39.314Z,23.27
2022-11-20T12:06:17.449Z,22.33
2022-11-20T12:08:58.083Z,22.15
2022-11-20T12:11:55.773Z,23.30
2022-11-20T12:14:35.357Z,23.02
2022-11-20T12:17:06.181Z,23.15
2022-11-20T12:19:35.746Z,23.27
2022-11-20T12:22:32.365Z,22.15
2022-11-20T12:25:19.532Z,23.83
2022-11-20T12:28:05.306Z,22.75
2022-11-20T12:30:40.292Z,21.77
2022-11-20T12:33:32.428Z,24.50
2022-11-20T12:36:02.944Z,22.33
2022-11-20T12:38:57.822Z,20.92
2022-11-20T12:42:02.062Z,24.17
2022-11-20T12:45:10.307Z,20.15
2022-11-20T12:50:53.232Z,22.27
2022-11-20T12:53:47.831Z,22.25
2022-11-20T12:56:42.525Z,21.17
2022-11-20T12:59:25.864Z,22.05
2022-11-20T13:02:15.106Z,22.00
2022-11-20T13:04:52.504Z,22.38
2022-11-20T13:07:22.532Z,21.13
2022-11-20T13:09:52.307Z,20.40
2022-11-20T13:12:19.475Z,20.00
2022-11-20T13:15:14.541Z,22.02
2022-11-20T13:18:02.092Z,21.73
2022-11-20T13:20:32.074Z,20.73
2022-11-20T13:22:59.865Z,23.17
2022-11-20T13:25:36.357Z,21.80
2022-11-20T13:28:30.566Z,21.20
2022-11-20T13:30:59.900Z,20.40
2022-11-20T13:33:36.388Z,19.70
2022-11-20T13:36:03.834Z,21.73
2022-11-20T13:38:47.546Z,21.90
2022-11-20T13:41:34.321Z,22.27
2022-11-20T13:44:10.599Z,21.00
2022-11-20T13:46:42.113Z,21.27
2022-11-20T13:49:18.964Z,21.83
2022-11-20T13:51:49.800Z,21.70
2022-11-20T13:54:44.885Z,24.13
2022-11-20T13:57:39.498Z,22.88
2022-11-20T14:00:18.794Z,24.35
2022-11-20T14:03:07.889Z,24.40
2022-11-20T14:05:41.963Z,23.80
2022-11-20T14:08:17.598Z,24.10
2022-11-20T14:10:44.877Z,23.85
2022-11-20T14:13:19.389Z,24.75
2022-11-20T14:15:46.750Z,23.08
2022-11-20T14:18:25.679Z,22.88
2022-11-20T14:20:53.263Z,23.25
2022-11-20T14:23:30.688Z,25.10
2022-11-20T14:25:58.368Z,24.10
2022-11-20T14:28:31.536Z,23.27
2022-11-20T14:30:59.043Z,24.00
2022-11-20T14:33:28.038Z,24.45
2022-11-20T14:35:57.537Z,25.20
2022-11-20T14:38:33.546Z,23.65
2022-11-20T14:41:08.740Z,24.65
2022-11-20T14:43:38.744Z,24.38
2022-11-20T14:46:09.916Z,25.00
2022-11-20T14:48:50.454Z,24.73
2022-11-20T14:51:34.140Z,25.25
2022-11-20T14:54:26.513Z,25.60
2022-11-20T14:57:02.497Z,25.92
2022-11-20T14:59:33.274Z,25.95
2022-11-20T15:02:13.912Z,26.38
2022-11-20T15:04:50.053Z,26.02
2022-11-20T15:07:32.794Z,26.80
2022-11-20T15:10:06.283Z,25.98
2022-11-20T15:12:38.790Z,29.05
2022-11-20T15:15:07.468Z,32.45
2022-11-20T15:17:42.693Z,31.80
2022-11-20T15:20:14.699Z,31.52
2022-11-20T15:22:42.182Z,30.17
2022-11-20T15:25:17.655Z,31.77
2022-11-20T15:27:45.816Z,32.05
2022-11-20T15:30:19.163Z,32.78
2022-11-20T15:32:47.378Z,32.63
2022-11-20T15:35:16.706Z,31.60
2022-11-20T15:37:44.190Z,30.73
2022-11-20T15:40:12.245Z,33.33
2022-11-20T15:42:39.434Z,32.83
2022-11-20T15:45:07.155Z,32.28
2022-11-20T15:47:36.419Z,32.88
2022-11-20T15:50:04.238Z,30.00
2022-11-20T15:52:40.325Z,33.17
2022-11-20T15:55:11.731Z,31.35
2022-11-20T15:57:38.899Z,31.90
2022-11-20T16:00:07.127Z,28.73
2022-11-20T16:02:37.951Z,28.80
2022-11-20T16:05:10.728Z,31.75
2022-11-20T16:07:37.999Z,30.52
2022-11-20T16:10:06.059Z,31.58
2022-11-20T16:12:53.450Z,29.42
2022-11-20T16:15:39.717Z,27.27
2022-11-20T16:18:09.739Z,29.88
2022-11-20T16:20:37.252Z,29.90
2022-11-20T16:23:05.136Z,31.35
2022-11-20T16:25:32.729Z,30.48
2022-11-20T16:27:59.994Z,29.25
2022-11-20T16:30:28.081Z,29.83
2022-11-20T16:32:55.446Z,30.23
2022-11-20T16:35:24.014Z,31.70
2022-11-20T16:37:51.171Z,31.65
2022-11-20T16:40:18.996Z,34.42
2022-11-20T16:42:46.242Z,32.97
2022-11-20T16:45:13.964Z,33.38
2022-11-20T16:47:41.171Z,37.13
2022-11-20T16:50:09.321Z,32.72
2022-11-20T16:52:36.774Z,30.58
2022-11-20T16:55:04.536Z,31.17
2022-11-20T16:57:36.030Z,32.15
2022-11-20T17:00:04.908Z,30.75
2022-11-20T17:02:32.088Z,29.88
2022-11-20T17:05:17.539Z,30.05
2022-11-20T17:07:44.796Z,28.75
2022-11-20T17:10:12.370Z,28.70
2022-11-20T17:12:39.599Z,26.70
2022-11-20T17:15:07.511Z,28.23
2022-11-20T17:17:34.932Z,29.13
2022-11-20T17:20:03.023Z,28.15
2022-11-20T17:22:31.346Z,26.73
2022-11-20T17:24:58.770Z,26.70
2022-11-20T17:27:26.904Z,28.17
2022-11-20T17:29:55.019Z,27.52
2022-11-20T17:32:22.211Z,27.45
2022-11-20T17:34:49.719Z,27.08
2022-11-20T17:37:16.901Z,25.15
2022-11-20T17:39:45.004Z,25.75
2022-11-20T17:42:27.150Z,25.80
2022-11-20T17:44:54.674Z,25.55
2022-11-20T17:47:21.836Z,26.17
2022-11-20T17:49:49.294Z,24.73
2022-11-20T17:52:16.433Z,22.90
2022-11-20T17:54:43.897Z,23.85
2022-11-20T17:57:29.797Z,22.42
2022-11-20T17:59:57.594Z,21.95
2022-11-20T18:02:25.154Z,23.00
2022-11-20T18:04:52.752Z,22.92
2022-11-20T18:07:20.028Z,22.33
2022-11-20T18:09:47.559Z,21.42
2022-11-20T18:12:14.758Z,23.15
2022-11-20T18:14:43.651Z,24.00
2022-11-20T18:17:13.043Z,23.17
2022-11-20T18:20:01.047Z,21.92
2022-11-20T18:22:33.854Z,22.65
2022-11-20T18:25:02.454Z,22.90
2022-11-20T18:27:29.608Z,24.67
2022-11-20T18:29:57.089Z,21.55
2022-11-20T18:32:24.262Z,23.08
2022-11-20T18:34:51.971Z,24.75
2022-11-20T18:37:19.940Z,23.45
2022-11-20T18:39:49.670Z,25.08
2022-11-20T18:42:35.984Z,23.90
2022-11-20T18:45:05.173Z,22.83
2022-11-20T18:47:37.549Z,23.38
2022-11-20T18:50:06.620Z,25.38
2022-11-20T18:52:38.893Z,25.08
2022-11-20T18:55:07.598Z,23.52
2022-11-20T18:57:34.963Z,24.08
2022-11-20T19:00:08.999Z,25.08
2022-11-20T19:02:41.526Z,22.85
2022-11-20T19:05:12.078Z,23.77
2022-11-20T19:07:39.417Z,25.85
2022-11-20T19:10:07.595Z,26.90
2022-11-20T19:12:34.768Z,24.45
2022-11-20T19:15:02.379Z,24.35
2022-11-20T19:17:29.560Z,23.73
2022-11-20T19:19:57.053Z,23.67
2022-11-20T19:22:24.227Z,23.88
2022-11-20T19:24:52.074Z,26.15
2022-11-20T19:27:19.252Z,26.50
2022-11-20T19:29:46.704Z,24.90
2022-11-20T19:32:13.959Z,23.63
2022-11-20T19:34:41.741Z,23.70
2022-11-20T19:37:09.913Z,24.20
2022-11-20T19:39:37.407Z,24.67
2022-11-20T19:42:04.665Z,24.80
2022-11-20T19:44:33.096Z,24.38
2022-11-20T19:47:00.775Z,25.10
2022-11-20T19:49:28.222Z,25.55
2022-11-20T19:51:56.447Z,25.55
2022-11-20T19:54:23.930Z,23.38
2022-11-20T19:56:51.110Z,22.38
2022-11-20T19:59:18.631Z,23.95
2022-11-20T20:01:45.958Z,21.30
2022-11-20T20:04:14.044Z,23.05
2022-11-20T20:06:41.801Z,23.17
2022-11-20T20:09:12.253Z,23.15
2022-11-20T20:11:40.439Z,22.52
2022-11-20T20:14:13.708Z,22.08
2022-11-20T20:16:42.029Z,23.13
2022-11-20T20:19:14.105Z,21.48
2022-11-20T20:21:41.687Z,22.33
2022-11-20T20:24:10.509Z,21.02
2022-11-20T20:26:38.150Z,21.02
2022-11-20T20:29:05.589Z,20.60
2022-11-20T20:31:36.190Z,22.10
2022-11-20T20:34:05.393Z,22.35
2022-11-20T20:36:33.131Z,21.58
2022-11-20T20:39:02.742Z,21.85
2022-11-20T20:41:30.769Z,22.25
2022-11-20T20:44:16.986Z,21.85
2022-11-20T20:46:44.207Z,20.92
2022-11-20T20:49:11.796Z,20.98
2022-11-20T20:51:39.000Z,20.98
2022-11-20T20:54:06.596Z,22.45
2022-11-20T20:56:33.757Z,22.60
2022-11-20T20:59:01.328Z,22.70
2022-11-20T21:01:29.220Z,23.30
2022-11-20T21:03:57.478Z,23.15
2022-11-20T21:06:25.414Z,24.13
2022-11-20T21:08:53.104Z,23.35
2022-11-20T21:11:21.302Z,22.05
2022-11-20T21:13:49.744Z,21.58
2022-11-20T21:16:20.795Z,24.70
2022-11-20T21:18:48.955Z,24.73
2022-11-20T21:21:36.288Z,21.50
2022-11-20T21:24:04.346Z,22.20
2022-11-20T21:26:31.617Z,21.90
2022-11-20T21:28:59.122Z,24.30
2022-11-20T21:31:27.130Z,23.65
2022-11-20T21:33:56.476Z,22.80
2022-11-20T21:36:26.663Z,21.27
2022-11-20T21:38:55.475Z,22.88
2022-11-20T21:41:23.923Z,25.13
2022-11-20T21:44:23.476Z,21.35
2022-11-20T21:46:42.388Z,23.20
2022-11-20T21:49:10.876Z,23.30
2022-11-20T21:51:38.496Z,23.88
2022-11-20T21:54:06.020Z,23.90
2022-11-20T21:56:33.455Z,23.95
2022-11-20T21:59:00.984Z,24.25
2022-11-20T22:01:30.239Z,24.13
2022-11-20T22:04:00.421Z,25.70
2022-11-20T22:06:34.967Z,24.45
2022-11-20T22:09:03.595Z,22.77
2022-11-20T22:11:30.966Z,23.05
2022-11-20T22:14:16.987Z,26.63
2022-11-20T22:16:44.243Z,25.90
2022-11-20T22:19:11.979Z,26.20
2022-11-20T22:21:40.230Z,24.73
2022-11-20T22:24:12.295Z,26.65
2022-11-20T22:26:40.646Z,28.83
2022-11-20T22:29:13.771Z,27.13
2022-11-20T22:31:41.272Z,26.75
2022-11-20T22:34:11.523Z,25.77
2022-11-20T22:36:40.024Z,27.77
2022-11-20T22:39:07.734Z,27.00
2022-11-20T22:41:35.770Z,27.73
2022-11-20T22:44:06.199Z,26.00
2022-11-20T22:46:36.441Z,24.73
2022-11-20T22:49:06.228Z,25.40
2022-11-20T22:51:35.528Z,28.17
2022-11-20T22:54:03.731Z,28.65
2022-11-20T22:56:31.632Z,27.13
2022-11-20T22:58:59.605Z,25.00
2022-11-20T23:01:30.734Z,27.55
2022-11-20T23:04:03.856Z,27.42
2022-11-20T23:06:34.333Z,26.48
2022-11-20T23:09:03.055Z,25.45
2022-11-20T23:11:31.645Z,24.08
2022-11-20T23:14:02.718Z,27.10
2022-11-20T23:16:31.514Z,28.02
2022-11-20T23:19:01.807Z,30.30
2022-11-20T23:21:29.208Z,29.27
2022-11-20T23:23:58.110Z,29.17
2022-11-20T23:26:30.527Z,30.40
2022-11-20T23:29:00.696Z,29.33
2022-11-20T23:31:29.961Z,29.52
2022-11-20T23:33:58.777Z,29.67
2022-11-20T23:36:26.634Z,31.38
2022-11-20T23:38:54.268Z,29.73
2022-11-20T23:41:21.448Z,31.58
2022-11-20T23:43:48.945Z,30.10
2022-11-20T23:46:16.935Z,29.25
2022-11-20T23:48:45.602Z,29.58
2022-11-20T23:51:13.379Z,29.10
2022-11-20T23:53:41.012Z,30.65
2022-11-20T23:56:08.542Z,28.25
2022-11-20T23:58:38.282Z,31.23
